createdAt,value
2023-05-04T00:12:29.814Z,14.60
2023-05-04T00:15:00.643Z,12.90
2023-05-04T00:17:31.472Z,14.20
2023-05-04T00:20:03.311Z,13.10
2023-05-04T00:22:34.321Z,21.50
2023-05-04T00:25:05.418Z,16.40
2023-05-04T00:27:36.274Z,9.20
2023-05-04T00:30:08.850Z,11.90
2023-05-04T00:32:41.964Z,8.00
2023-05-04T00:35:13.147Z,9.60
2023-05-04T00:37:45.403Z,10.00
2023-05-04T00:40:16.351Z,14.80
2023-05-04T00:42:48.028Z,13.40
2023-05-04T00:45:19.138Z,13.10
2023-05-04T00:48:34.173Z,10.40
2023-05-04T00:51:05.976Z,16.20
2023-05-04T00:53:38.230Z,12.60
2023-05-04T00:56:43.576Z,15.90
2023-05-04T00:59:14.826Z,10.70
2023-05-04T01:30:08.227Z,11.40
2023-05-04T01:32:37.979Z,13.60
2023-05-04T01:35:07.679Z,11.40
2023-05-04T01:37:35.677Z,13.90
2023-05-04T01:40:04.987Z,12.60
2023-05-04T01:42:33.319Z,14.10
2023-05-04T01:45:02.566Z,11.40
2023-05-04T01:47:31.147Z,12.10
2023-05-04T01:49:59.236Z,11.80
2023-05-04T01:52:27.254Z,15.80
2023-05-04T01:54:55.218Z,11.20
2023-05-04T01:57:23.362Z,14.20
2023-05-04T01:59:51.743Z,16.30
2023-05-04T02:02:19.799Z,17.20
2023-05-04T02:04:47.749Z,16.60
2023-05-04T02:07:15.811Z,14.40
2023-05-04T02:09:43.870Z,14.20
2023-05-04T02:12:11.867Z,18.50
2023-05-04T02:14:39.895Z,16.50
2023-05-04T02:17:08.529Z,13.20
2023-05-04T02:19:38.373Z,17.70
2023-05-04T02:22:06.343Z,17.10
2023-05-04T02:24:35.316Z,15.10
2023-05-04T02:27:03.379Z,14.80
2023-05-04T02:29:31.354Z,13.90
2023-05-04T02:31:59.493Z,17.10
2023-05-04T02:34:27.662Z,13.60
2023-05-04T02:36:55.678Z,16.60
2023-05-04T02:39:23.656Z,16.10
2023-05-04T02:41:51.582Z,17.50
2023-05-04T02:44:21.934Z,16.10
2023-05-04T02:46:49.875Z,19.50
2023-05-04T02:49:17.907Z,19.50
2023-05-04T02:51:46.805Z,19.50
2023-05-04T02:54:14.816Z,13.70
2023-05-04T02:56:42.785Z,19.60
2023-05-04T02:59:10.744Z,15.50
2023-05-04T03:01:38.916Z,18.10
2023-05-04T03:04:07.454Z,14.80
2023-05-04T03:06:35.991Z,14.00
2023-05-04T03:09:04.251Z,18.80
2023-05-04T03:11:32.201Z,15.10
2023-05-04T03:14:00.566Z,22.70
2023-05-04T03:16:29.155Z,14.50
2023-05-04T03:18:57.557Z,23.90
2023-05-04T03:21:25.618Z,27.50
2023-05-04T03:23:54.250Z,15.40
2023-05-04T03:26:22.285Z,17.20
2023-05-04T03:28:50.956Z,13.40
2023-05-04T03:31:19.107Z,15.40
2023-05-04T03:33:48.602Z,15.10
2023-05-04T03:36:17.260Z,21.30
2023-05-04T03:38:46.086Z,23.70
2023-05-04T03:41:14.378Z,17.80
2023-05-04T03:43:42.357Z,15.40
2023-05-04T03:46:11.787Z,21.90
2023-05-04T03:48:39.878Z,19.40
2023-05-04T03:51:10.360Z,22.40
2023-05-04T03:53:38.361Z,20.70
2023-05-04T03:56:07.718Z,20.50
2023-05-04T03:58:36.071Z,21.30
2023-05-04T04:01:05.077Z,22.00
2023-05-04T04:03:49.403Z,23.40
2023-05-04T04:06:26.236Z,19.20
2023-05-04T04:09:28.350Z,21.90
2023-05-04T04:11:56.944Z,30.90
2023-05-04T04:14:25.169Z,27.40
2023-05-04T04:17:42.395Z,25.00
2023-05-04T04:27:17.568Z,34.60
2023-05-04T04:29:45.592Z,33.80
2023-05-04T04:32:14.040Z,34.50
2023-05-04T04:34:45.406Z,30.00
2023-05-04T04:43:34.305Z,36.00
2023-05-04T04:46:07.605Z,34.50
2023-05-04T04:48:35.781Z,35.00
2023-05-04T04:51:05.177Z,39.40
2023-05-04T04:53:33.272Z,28.80
2023-05-04T04:56:01.368Z,36.00
2023-05-04T04:58:29.499Z,34.70
2023-05-04T05:00:58.156Z,34.00
2023-05-04T05:03:26.482Z,31.30
2023-05-04T05:05:55.206Z,30.20
2023-05-04T05:08:23.186Z,32.30
2023-05-04T05:10:51.696Z,27.30
2023-05-04T05:13:36.281Z,31.40
2023-05-04T05:16:22.071Z,31.80
2023-05-04T05:18:54.691Z,32.40
2023-05-04T05:21:26.867Z,27.00
2023-05-04T05:23:56.094Z,25.50
2023-05-04T05:26:24.495Z,28.30
2023-05-04T05:28:52.396Z,28.70
2023-05-04T05:31:40.999Z,26.20
2023-05-04T05:34:08.950Z,28.40
2023-05-04T05:36:37.397Z,27.30
2023-05-04T05:39:05.714Z,26.20
2023-05-04T05:41:34.268Z,30.20
2023-05-04T05:44:02.427Z,27.40
2023-05-04T05:46:33.481Z,22.90
2023-05-04T05:49:02.336Z,27.50
2023-05-04T05:51:31.515Z,27.00
2023-05-04T05:53:59.811Z,27.30
2023-05-04T05:56:28.022Z,23.90
2023-05-04T05:58:56.009Z,18.50
2023-05-04T06:01:24.466Z,24.70
2023-05-04T06:03:53.096Z,22.10
2023-05-04T06:06:21.467Z,17.70
2023-05-04T06:08:50.205Z,26.80
2023-05-04T06:11:18.726Z,27.10
2023-05-04T06:13:46.926Z,20.00
2023-05-04T06:16:15.116Z,21.60
2023-05-04T06:18:43.829Z,25.60
2023-05-04T06:21:12.184Z,19.00
2023-05-04T06:23:51.167Z,21.80
2023-05-04T06:26:30.154Z,18.40
2023-05-04T06:28:58.246Z,18.20
2023-05-04T06:31:27.357Z,12.30
2023-05-04T06:34:04.392Z,11.40
2023-05-04T06:36:32.260Z,12.50
2023-05-04T06:39:00.390Z,13.70
2023-05-04T06:41:28.657Z,13.60
2023-05-04T07:04:12.611Z,11.00
2023-05-04T07:17:25.562Z,9.60
2023-05-04T07:19:57.206Z,11.30
2023-05-04T07:22:29.964Z,9.90
2023-05-04T07:25:02.294Z,11.00
2023-05-04T07:27:51.838Z,10.20
2023-05-04T07:33:21.195Z,7.90
2023-05-04T07:35:57.508Z,4.70
2023-05-04T07:39:11.443Z,4.20
2023-05-04T07:41:42.315Z,5.10
2023-05-04T07:44:16.489Z,7.20
2023-05-04T07:46:47.490Z,15.40
2023-05-04T07:49:18.496Z,6.40
2023-05-04T07:51:58.543Z,7.80
2023-05-04T07:54:29.699Z,6.80
2023-05-04T07:59:35.205Z,7.70
2023-05-04T08:02:06.357Z,11.30
2023-05-04T08:04:39.314Z,6.90
2023-05-04T08:07:10.105Z,4.70
2023-05-04T08:09:49.494Z,3.90
2023-05-04T08:12:44.210Z,5.60
2023-05-04T08:18:51.551Z,15.20
2023-05-04T08:21:23.888Z,7.10
2023-05-04T08:23:56.278Z,5.40
2023-05-04T08:26:55.602Z,6.30
2023-05-04T08:29:37.788Z,3.90
2023-05-04T08:32:50.684Z,6.00
2023-05-04T08:35:28.675Z,4.30
2023-05-04T08:37:59.690Z,4.80
2023-05-04T08:40:30.847Z,3.70
2023-05-04T08:43:36.745Z,6.20
2023-05-04T08:48:38.979Z,3.30
2023-05-04T08:51:41.542Z,5.30
2023-05-04T08:54:13.562Z,12.60
2023-05-04T09:00:30.996Z,4.50
2023-05-04T09:03:03.852Z,4.50
2023-05-04T09:05:35.141Z,4.70
2023-05-04T09:08:06.560Z,7.10
2023-05-04T09:11:02.266Z,7.30
2023-05-04T09:14:24.434Z,9.80
2023-05-04T09:16:58.676Z,6.30
2023-05-04T09:19:33.723Z,3.10
2023-05-04T09:22:18.225Z,5.40
2023-05-04T09:24:49.299Z,5.70
2023-05-04T09:30:48.441Z,14.50
2023-05-04T09:35:48.821Z,4.10
2023-05-04T09:42:21.596Z,3.80
2023-05-04T09:45:03.598Z,4.20
2023-05-04T09:47:39.673Z,5.00
2023-05-04T09:50:40.201Z,3.80
2023-05-04T09:53:11.961Z,4.80
2023-05-04T09:55:46.769Z,5.30
2023-05-04T09:58:18.675Z,3.50
2023-05-04T10:00:50.451Z,6.00
2023-05-04T10:03:22.037Z,9.40
2023-05-04T10:05:54.441Z,3.90
2023-05-04T10:08:25.579Z,9.50
2023-05-04T10:10:56.900Z,2.80
2023-05-04T10:13:28.093Z,5.50
2023-05-04T10:16:11.216Z,4.70
2023-05-04T10:19:00.485Z,6.90
2023-05-04T10:21:44.814Z,3.80
2023-05-04T10:26:34.096Z,4.40
2023-05-04T10:29:21.401Z,6.70
2023-05-04T10:31:54.764Z,11.10
2023-05-04T10:34:29.743Z,6.30
2023-05-04T10:39:31.448Z,4.90
2023-05-04T10:42:04.214Z,3.40
2023-05-04T10:44:37.497Z,6.90
2023-05-04T10:47:09.699Z,3.50
2023-05-04T10:49:40.908Z,5.10
2023-05-04T10:52:17.984Z,3.00
2023-05-04T10:54:59.468Z,5.70
2023-05-04T10:57:31.333Z,3.20
2023-05-04T11:00:02.399Z,3.70
2023-05-04T11:02:34.075Z,3.30
2023-05-04T11:05:07.102Z,4.10
2023-05-04T11:07:39.899Z,6.40
2023-05-04T11:10:23.468Z,4.40
2023-05-04T11:13:02.210Z,6.00
2023-05-04T11:15:44.710Z,4.90
2023-05-04T11:18:17.386Z,6.80
2023-05-04T11:20:49.445Z,7.50
2023-05-04T11:23:20.421Z,5.10
2023-05-04T11:25:51.500Z,4.30
2023-05-04T11:28:32.310Z,4.70
2023-05-04T11:31:03.551Z,8.80
2023-05-04T11:33:34.763Z,12.80
2023-05-04T11:36:06.268Z,4.40
2023-05-04T11:38:37.503Z,5.80
2023-05-04T11:41:09.273Z,4.50
2023-05-04T11:43:42.424Z,6.40
2023-05-04T11:46:20.637Z,3.40
2023-05-04T11:49:08.013Z,10.80
2023-05-04T11:51:38.843Z,5.10
2023-05-04T11:54:21.226Z,7.00
2023-05-04T12:01:13.672Z,7.10
2023-05-04T12:03:53.629Z,6.20
2023-05-04T12:06:35.492Z,4.60
2023-05-04T12:09:07.041Z,6.50
2023-05-04T12:11:38.602Z,4.70
2023-05-04T12:14:11.018Z,6.90
2023-05-04T12:16:54.223Z,3.30
2023-05-04T12:19:24.921Z,3.50
2023-05-04T12:21:58.881Z,4.30
2023-05-04T12:24:53.261Z,10.20
2023-05-04T12:31:51.512Z,15.80
2023-05-04T12:34:24.651Z,10.40
2023-05-04T12:36:59.691Z,7.40
2023-05-04T12:42:22.226Z,3.80
2023-05-04T12:44:53.800Z,8.80
2023-05-04T12:47:25.065Z,3.90
2023-05-04T12:49:56.544Z,10.50
2023-05-04T12:52:27.258Z,6.10
2023-05-04T12:55:01.195Z,11.90
2023-05-04T12:57:32.043Z,7.60
2023-05-04T13:00:02.765Z,5.90
2023-05-04T13:02:33.563Z,7.40
2023-05-04T13:05:43.713Z,5.40
2023-05-04T13:08:14.508Z,6.80
2023-05-04T13:17:53.957Z,7.80
2023-05-04T13:21:27.608Z,8.00
2023-05-04T13:24:00.514Z,7.80
2023-05-04T13:26:31.401Z,5.50
2023-05-04T13:29:03.553Z,12.10
2023-05-04T13:31:34.365Z,4.90
2023-05-04T13:34:05.503Z,4.10
2023-05-04T13:36:38.569Z,6.80
2023-05-04T13:39:09.429Z,5.80
2023-05-04T13:41:41.198Z,8.90
2023-05-04T13:44:12.792Z,4.20
2023-05-04T13:46:45.954Z,4.40
2023-05-04T13:49:19.836Z,5.90
2023-05-04T13:51:58.048Z,8.80
2023-05-04T13:54:29.745Z,3.40
2023-05-04T13:57:00.635Z,10.50
2023-05-04T13:59:31.750Z,4.40
2023-05-04T14:02:34.860Z,5.10
2023-05-04T14:05:07.027Z,4.10
2023-05-04T14:07:38.388Z,6.50
2023-05-04T14:10:10.758Z,13.20
2023-05-04T14:12:44.480Z,5.30
2023-05-04T14:15:16.722Z,4.50
2023-05-04T14:17:48.157Z,7.60
2023-05-04T14:20:19.922Z,5.30
2023-05-04T14:22:53.547Z,4.80
2023-05-04T14:25:24.372Z,10.80
2023-05-04T14:27:55.625Z,4.40
2023-05-04T14:30:27.645Z,5.00
2023-05-04T14:33:01.725Z,7.70
2023-05-04T14:35:32.596Z,19.10
2023-05-04T14:38:03.497Z,8.10
2023-05-04T14:40:34.237Z,7.30
2023-05-04T14:43:05.041Z,10.60
2023-05-04T14:45:38.680Z,7.50
2023-05-04T14:48:10.135Z,7.40
2023-05-04T14:50:41.762Z,10.10
2023-05-04T14:53:14.569Z,7.40
2023-05-04T14:55:45.815Z,5.80
2023-05-04T14:58:16.760Z,11.70
2023-05-04T15:01:39.719Z,3.50
2023-05-04T15:04:13.848Z,6.70
2023-05-04T15:06:44.652Z,8.10
2023-05-04T15:09:24.599Z,5.50
2023-05-04T15:11:55.757Z,10.00
2023-05-04T15:14:27.250Z,5.80
2023-05-04T15:16:58.021Z,9.50
2023-05-04T15:20:11.428Z,5.40
2023-05-04T15:23:10.908Z,9.80
2023-05-04T15:25:42.803Z,5.10
2023-05-04T15:28:13.600Z,6.90
2023-05-04T15:30:45.242Z,6.70
2023-05-04T15:33:15.992Z,5.10
2023-05-04T15:35:46.758Z,4.70
2023-05-04T15:38:18.298Z,5.80
2023-05-04T15:40:51.694Z,7.50
2023-05-04T15:43:22.394Z,8.60
2023-05-04T15:45:53.150Z,5.90
2023-05-04T15:48:24.212Z,7.60
2023-05-04T15:50:55.009Z,12.70
2023-05-04T15:53:25.925Z,9.90
2023-05-04T15:55:56.644Z,6.00
2023-05-04T15:58:27.345Z,6.70
2023-05-04T16:00:59.870Z,10.50
2023-05-04T16:03:30.835Z,3.90
2023-05-04T16:06:01.822Z,8.00
2023-05-04T16:08:32.644Z,4.70
2023-05-04T16:11:04.708Z,6.60
2023-05-04T16:13:35.799Z,11.10
2023-05-04T16:16:09.985Z,6.80
2023-05-04T16:18:40.811Z,4.00
2023-05-04T16:21:14.108Z,6.20
2023-05-04T16:23:45.823Z,6.10
2023-05-04T16:26:16.757Z,10.30
2023-05-04T16:28:47.676Z,6.70
2023-05-04T16:31:18.943Z,8.70
2023-05-04T16:33:49.728Z,5.30
2023-05-04T16:36:20.807Z,5.10
2023-05-04T16:38:52.299Z,22.60
2023-05-04T16:41:23.070Z,12.90
2023-05-04T16:43:54.405Z,5.00
2023-05-04T16:46:25.241Z,5.20
2023-05-04T16:48:56.070Z,8.30
2023-05-04T16:51:28.157Z,8.10
2023-05-04T16:53:59.028Z,5.70
2023-05-04T16:56:32.729Z,4.00
2023-05-04T16:59:03.538Z,5.20
2023-05-04T17:01:34.559Z,11.70
2023-05-04T17:04:13.040Z,12.90
2023-05-04T17:06:43.805Z,5.70
2023-05-04T17:09:14.618Z,4.40
2023-05-04T17:11:48.610Z,5.90
2023-05-04T17:14:19.453Z,6.00
2023-05-04T17:16:50.974Z,6.00
2023-05-04T17:19:21.822Z,8.10
2023-05-04T17:22:18.136Z,9.70
2023-05-04T17:24:49.049Z,2.70
2023-05-04T17:27:19.764Z,7.20
2023-05-04T17:29:52.192Z,4.10
2023-05-04T17:32:23.135Z,10.20
2023-05-04T17:34:53.941Z,3.20
2023-05-04T17:37:24.646Z,8.60
2023-05-04T17:39:55.402Z,7.30
2023-05-04T17:42:26.514Z,7.40
2023-05-04T17:44:57.222Z,4.20
2023-05-04T17:47:28.115Z,4.70
2023-05-04T17:49:58.885Z,5.90
2023-05-04T17:52:29.690Z,5.20
2023-05-04T17:55:01.185Z,3.00
2023-05-04T17:57:32.021Z,4.90
2023-05-04T18:00:05.268Z,6.70
2023-05-04T18:02:36.515Z,12.70
2023-05-04T18:05:08.904Z,4.60
2023-05-04T18:07:39.775Z,8.90
2023-05-04T18:10:12.115Z,4.80
2023-05-04T18:12:43.013Z,5.30
2023-05-04T18:15:14.190Z,5.30
2023-05-04T18:17:45.159Z,8.10
2023-05-04T18:20:16.070Z,6.60
2023-05-04T18:22:47.651Z,24.60
2023-05-04T18:25:18.867Z,9.00
2023-05-04T18:27:49.582Z,9.60
2023-05-04T18:30:20.427Z,6.00
2023-05-04T18:32:51.354Z,7.30
2023-05-04T18:35:22.555Z,11.50
2023-05-04T18:37:53.373Z,13.10
2023-05-04T18:40:24.667Z,5.10
2023-05-04T18:42:55.438Z,10.70
2023-05-04T18:45:41.676Z,11.80
2023-05-04T18:48:13.614Z,10.50
2023-05-04T18:51:01.558Z,15.60
2023-05-04T18:53:33.152Z,13.50
2023-05-04T18:56:08.996Z,5.10
2023-05-04T18:58:48.540Z,7.50
2023-05-04T19:01:32.331Z,9.20
2023-05-04T19:04:04.873Z,11.60
2023-05-04T19:06:54.093Z,12.10
2023-05-04T19:09:28.708Z,8.20
2023-05-04T19:12:00.759Z,6.60
2023-05-04T19:14:56.607Z,12.30
2023-05-04T19:17:30.909Z,7.30
2023-05-04T19:20:03.092Z,13.30
2023-05-04T19:22:35.073Z,6.20
2023-05-04T19:59:25.275Z,12.30
2023-05-04T20:01:54.651Z,11.10
2023-05-04T20:04:23.836Z,10.30
2023-05-04T20:06:52.195Z,10.80
2023-05-04T20:09:20.842Z,10.00
2023-05-04T20:11:48.963Z,8.20
2023-05-04T20:14:17.117Z,8.90
2023-05-04T20:16:45.516Z,12.40
2023-05-04T20:19:13.550Z,10.60
2023-05-04T20:21:41.619Z,7.90
2023-05-04T20:24:10.783Z,4.60
2023-05-04T20:26:38.849Z,9.10
2023-05-04T20:29:09.915Z,15.70
2023-05-04T20:31:39.841Z,7.20
2023-05-04T20:34:07.891Z,5.90
2023-05-04T20:36:36.511Z,8.80
2023-05-04T20:39:06.233Z,4.90
2023-05-04T20:41:34.222Z,5.20
2023-05-04T20:44:02.201Z,6.00
2023-05-04T20:46:31.232Z,6.10
2023-05-04T20:49:02.140Z,8.90
2023-05-04T20:51:30.589Z,6.40
2023-05-04T20:53:58.537Z,6.30
2023-05-04T20:56:26.671Z,6.80
2023-05-04T20:58:55.373Z,6.80
2023-05-04T21:01:26.231Z,5.90
2023-05-04T21:04:02.706Z,7.00
2023-05-04T21:06:31.184Z,5.90
2023-05-04T21:09:00.722Z,18.60
2023-05-04T21:11:29.343Z,6.70
2023-05-04T21:13:57.543Z,8.30
2023-05-04T21:16:25.894Z,7.60
2023-05-04T21:18:56.885Z,5.60
2023-05-04T21:21:45.237Z,12.90
2023-05-04T21:24:13.796Z,4.90
2023-05-04T21:26:42.132Z,7.50
2023-05-04T21:29:13.962Z,6.40
2023-05-04T21:31:45.016Z,11.00
2023-05-04T21:34:13.673Z,5.90
2023-05-04T21:36:43.837Z,6.60
2023-05-04T21:39:12.073Z,4.80
2023-05-04T21:41:40.275Z,8.70
2023-05-04T21:44:08.529Z,8.00
2023-05-04T21:46:36.475Z,5.30
2023-05-04T21:49:04.635Z,8.80
2023-05-04T21:51:32.682Z,7.80
2023-05-04T21:54:01.623Z,7.70
2023-05-04T21:56:29.766Z,7.20
2023-05-04T21:58:57.891Z,12.70
2023-05-04T22:01:26.320Z,7.30
2023-05-04T22:03:54.738Z,12.50
2023-05-04T22:06:23.889Z,10.00
2023-05-04T22:08:51.955Z,9.10
2023-05-04T22:11:20.159Z,11.80
2023-05-04T22:13:59.066Z,7.20
2023-05-04T22:16:27.377Z,12.80
2023-05-04T22:18:55.699Z,4.90
2023-05-04T22:21:24.234Z,10.80
2023-05-04T22:23:52.450Z,13.10
2023-05-04T22:26:20.885Z,6.90
2023-05-04T22:28:49.042Z,6.00
2023-05-04T22:31:17.350Z,8.10
2023-05-04T22:33:45.679Z,9.40
2023-05-04T22:36:13.940Z,7.60
2023-05-04T22:38:42.213Z,11.10
2023-05-04T22:41:12.753Z,5.50
2023-05-04T22:43:40.841Z,8.00
2023-05-04T22:46:15.983Z,5.40
2023-05-04T22:51:14.224Z,7.50
2023-05-04T22:53:44.563Z,14.50
2023-05-04T22:56:12.806Z,9.70
2023-05-04T22:58:41.380Z,9.30
2023-05-04T23:01:11.128Z,8.50
2023-05-04T23:03:40.991Z,8.10
2023-05-04T23:06:09.151Z,8.80
2023-05-04T23:08:38.041Z,12.20
2023-05-04T23:11:06.401Z,6.80
2023-05-04T23:13:34.563Z,9.90
2023-05-04T23:16:03.550Z,9.20
2023-05-04T23:18:32.697Z,8.90
2023-05-04T23:21:00.948Z,6.30
2023-05-04T23:23:29.116Z,10.00
2023-05-04T23:25:57.415Z,6.00
2023-05-04T23:28:25.825Z,9.80
2023-05-04T23:30:57.622Z,10.10
2023-05-04T23:33:32.775Z,6.00
2023-05-04T23:36:04.150Z,10.30
2023-05-04T23:38:39.848Z,11.50
2023-05-04T23:41:08.132Z,12.40
2023-05-04T23:43:36.120Z,9.60
2023-05-04T23:46:06.816Z,8.30
2023-05-04T23:48:37.579Z,5.80
2023-05-04T23:51:54.975Z,8.70
2023-05-04T23:54:37.094Z,10.30
2023-05-04T23:57:07.910Z,7.90
2023-05-04T23:59:36.261Z,9.00
